sensor_id;sensor_type;location;lat;lon;timestamp;pressure;altitude;pressure_sealevel;temperature;humidity
50774;BME280;36745;48.544;8.918;2023-03-14T00:01:28;95798.88;;;10.08;100.00
50774;BME280;36745;48.544;8.918;2023-03-14T00:04:48;95772.28;;;10.05;100.00
50774;BME280;36745;48.544;8.918;2023-03-14T00:08:08;95789.91;;;9.99;100.00
50774;BME280;36745;48.544;8.918;2023-03-14T00:11:28;95787.28;;;10.04;100.00
50774;BME280;36745;48.544;8.918;2023-03-14T00:14:49;95772.47;;;10.02;100.00
50774;BME280;36745;48.544;8.918;2023-03-14T00:18:08;95765.25;;;10.04;100.00
50774;BME280;36745;48.544;8.918;2023-03-14T00:21:28;95771.50;;;10.05;100.00
50774;BME280;36745;48.544;8.918;2023-03-14T00:24:48;95762.59;;;10.10;100.00
50774;BME280;36745;48.544;8.918;2023-03-14T00:28:08;95778.78;;;10.17;100.00
50774;BME280;36745;48.544;8.918;2023-03-14T00:31:28;95773.81;;;10.21;100.00
50774;BME280;36745;48.544;8.918;2023-03-14T00:34:48;95773.25;;;10.17;100.00
50774;BME280;36745;48.544;8.918;2023-03-14T00:38:07;95781.59;;;10.08;100.00
50774;BME280;36745;48.544;8.918;2023-03-14T00:41:27;95778.34;;;10.09;100.00
50774;BME280;36745;48.544;8.918;2023-03-14T00:44:47;95782.75;;;10.16;100.00
50774;BME280;36745;48.544;8.918;2023-03-14T00:48:07;95788.25;;;10.16;100.00
50774;BME280;36745;48.544;8.918;2023-03-14T00:51:27;95797.72;;;10.15;100.00
50774;BME280;36745;48.544;8.918;2023-03-14T00:54:46;95803.41;;;10.11;99.97
50774;BME280;36745;48.544;8.918;2023-03-14T00:58:06;95803.88;;;10.10;99.43
50774;BME280;36745;48.544;8.918;2023-03-14T01:01:26;95807.97;;;10.00;100.00
50774;BME280;36745;48.544;8.918;2023-03-14T01:04:49;95809.50;;;10.01;100.00
50774;BME280;36745;48.544;8.918;2023-03-14T01:08:09;95801.13;;;10.10;100.00
50774;BME280;36745;48.544;8.918;2023-03-14T01:11:31;95793.75;;;10.16;99.46
50774;BME280;36745;48.544;8.918;2023-03-14T01:14:52;95784.28;;;10.17;99.39
50774;BME280;36745;48.544;8.918;2023-03-14T01:18:11;95770.59;;;10.08;98.28
50774;BME280;36745;48.544;8.918;2023-03-14T01:21:33;95765.75;;;10.03;99.12
50774;BME280;36745;48.544;8.918;2023-03-14T01:24:53;95758.59;;;9.96;99.96
50774;BME280;36745;48.544;8.918;2023-03-14T01:28:13;95746.94;;;10.01;98.62
50774;BME280;36745;48.544;8.918;2023-03-14T01:31:33;95741.91;;;10.00;98.76
50774;BME280;36745;48.544;8.918;2023-03-14T01:34:53;95740.97;;;10.03;99.14
50774;BME280;36745;48.544;8.918;2023-03-14T01:38:12;95723.28;;;9.95;99.38
50774;BME280;36745;48.544;8.918;2023-03-14T01:41:32;95724.06;;;9.95;99.96
50774;BME280;36745;48.544;8.918;2023-03-14T01:44:54;95714.56;;;9.96;100.00
50774;BME280;36745;48.544;8.918;2023-03-14T01:48:14;95713.81;;;9.96;100.00
50774;BME280;36745;48.544;8.918;2023-03-14T01:51:42;95702.03;;;9.95;100.00
50774;BME280;36745;48.544;8.918;2023-03-14T01:55:07;95704.59;;;9.99;100.00
50774;BME280;36745;48.544;8.918;2023-03-14T01:58:29;95709.25;;;9.93;100.00
50774;BME280;36745;48.544;8.918;2023-03-14T02:01:50;95709.44;;;9.89;100.00
50774;BME280;36745;48.544;8.918;2023-03-14T02:05:12;95710.19;;;9.90;100.00
50774;BME280;36745;48.544;8.918;2023-03-14T02:08:35;95704.41;;;9.88;100.00
50774;BME280;36745;48.544;8.918;2023-03-14T02:11:56;95701.66;;;9.88;99.27
50774;BME280;36745;48.544;8.918;2023-03-14T02:15:16;95704.50;;;9.79;99.40
50774;BME280;36745;48.544;8.918;2023-03-14T02:18:37;95699.94;;;9.76;99.75
50774;BME280;36745;48.544;8.918;2023-03-14T02:22:17;95685.34;;;9.69;100.00
50774;BME280;36745;48.544;8.918;2023-03-14T02:26:22;95685.91;;;9.74;99.88
50774;BME280;36745;48.544;8.918;2023-03-14T02:29:57;95688.38;;;9.72;100.00
50774;BME280;36745;48.544;8.918;2023-03-14T02:33:20;95690.63;;;9.73;100.00
50774;BME280;36745;48.544;8.918;2023-03-14T02:36:40;95674.88;;;9.74;100.00
50774;BME280;36745;48.544;8.918;2023-03-14T02:40:00;95684.47;;;9.78;100.00
50774;BME280;36745;48.544;8.918;2023-03-14T02:43:20;95662.38;;;9.73;99.49
50774;BME280;36745;48.544;8.918;2023-03-14T02:46:40;95654.59;;;9.71;99.17
50774;BME280;36745;48.544;8.918;2023-03-14T02:50:12;95649.66;;;9.60;99.63
50774;BME280;36745;48.544;8.918;2023-03-14T02:53:35;95637.22;;;9.50;99.81
50774;BME280;36745;48.544;8.918;2023-03-14T02:56:55;95641.22;;;9.49;99.39
50774;BME280;36745;48.544;8.918;2023-03-14T03:00:15;95649.84;;;9.42;98.23
50774;BME280;36745;48.544;8.918;2023-03-14T03:03:35;95637.41;;;9.32;98.40
50774;BME280;36745;48.544;8.918;2023-03-14T03:06:55;95629.16;;;9.32;98.00
50774;BME280;36745;48.544;8.918;2023-03-14T03:10:15;95618.25;;;9.23;97.38
50774;BME280;36745;48.544;8.918;2023-03-14T03:13:35;95622.88;;;9.17;97.24
50774;BME280;36745;48.544;8.918;2023-03-14T03:16:54;95615.31;;;9.12;96.72
50774;BME280;36745;48.544;8.918;2023-03-14T03:20:14;95615.38;;;9.03;97.07
50774;BME280;36745;48.544;8.918;2023-03-14T03:23:35;95599.53;;;8.98;95.50
50774;BME280;36745;48.544;8.918;2023-03-14T03:26:54;95603.50;;;8.97;95.16
50774;BME280;36745;48.544;8.918;2023-03-14T03:30:14;95593.47;;;8.94;94.97
50774;BME280;36745;48.544;8.918;2023-03-14T03:33:36;95583.59;;;8.87;94.69
50774;BME280;36745;48.544;8.918;2023-03-14T03:36:56;95582.06;;;8.86;94.24
50774;BME280;36745;48.544;8.918;2023-03-14T03:40:16;95587.75;;;8.82;94.66
50774;BME280;36745;48.544;8.918;2023-03-14T03:43:36;95578.84;;;8.88;94.08
50774;BME280;36745;48.544;8.918;2023-03-14T03:46:56;95582.81;;;8.87;93.57
50774;BME280;36745;48.544;8.918;2023-03-14T03:50:16;95578.44;;;8.80;93.20
50774;BME280;36745;48.544;8.918;2023-03-14T03:53:35;95572.38;;;8.76;93.97
50774;BME280;36745;48.544;8.918;2023-03-14T03:56:55;95572.22;;;8.79;93.84
50774;BME280;36745;48.544;8.918;2023-03-14T04:00:15;95570.91;;;8.90;93.90
50774;BME280;36745;48.544;8.918;2023-03-14T04:03:35;95565.69;;;8.92;93.00
50774;BME280;36745;48.544;8.918;2023-03-14T04:06:55;95561.81;;;8.83;93.04
50774;BME280;36745;48.544;8.918;2023-03-14T04:10:14;95559.72;;;8.78;92.71
50774;BME280;36745;48.544;8.918;2023-03-14T04:13:34;95558.38;;;8.74;92.00
50774;BME280;36745;48.544;8.918;2023-03-14T04:16:54;95553.34;;;8.72;92.96
50774;BME280;36745;48.544;8.918;2023-03-14T04:20:14;95547.00;;;8.81;92.35
50774;BME280;36745;48.544;8.918;2023-03-14T04:23:34;95554.56;;;8.71;91.84
50774;BME280;36745;48.544;8.918;2023-03-14T04:26:54;95550.19;;;8.65;92.42
50774;BME280;36745;48.544;8.918;2023-03-14T04:30:14;95525.00;;;8.66;91.71
50774;BME280;36745;48.544;8.918;2023-03-14T04:33:34;95522.34;;;8.57;92.43
50774;BME280;36745;48.544;8.918;2023-03-14T04:36:54;95525.84;;;8.58;92.62
50774;BME280;36745;48.544;8.918;2023-03-14T04:40:14;95522.91;;;8.61;92.23
50774;BME280;36745;48.544;8.918;2023-03-14T04:43:34;95522.91;;;8.61;91.91
50774;BME280;36745;48.544;8.918;2023-03-14T04:46:54;95526.69;;;8.64;91.12
50774;BME280;36745;48.544;8.918;2023-03-14T04:50:14;95506.63;;;8.58;91.50
50774;BME280;36745;48.544;8.918;2023-03-14T04:53:34;95510.31;;;8.55;91.47
50774;BME280;36745;48.544;8.918;2023-03-14T04:56:55;95504.06;;;8.54;91.24
50774;BME280;36745;48.544;8.918;2023-03-14T05:00:15;95495.66;;;8.58;91.70
50774;BME280;36745;48.544;8.918;2023-03-14T05:03:37;95489.41;;;8.57;91.72
50774;BME280;36745;48.544;8.918;2023-03-14T05:06:57;95483.69;;;8.61;91.47
50774;BME280;36745;48.544;8.918;2023-03-14T05:10:17;95481.16;;;8.57;91.48
50774;BME280;36745;48.544;8.918;2023-03-14T05:13:37;95478.97;;;8.61;91.09
50774;BME280;36745;48.544;8.918;2023-03-14T05:16:57;95472.97;;;8.48;90.80
50774;BME280;36745;48.544;8.918;2023-03-14T05:20:17;95462.38;;;8.41;91.30
50774;BME280;36745;48.544;8.918;2023-03-14T05:23:36;95469.47;;;8.48;91.83
50774;BME280;36745;48.544;8.918;2023-03-14T05:26:56;95458.47;;;8.48;90.81
50774;BME280;36745;48.544;8.918;2023-03-14T05:30:16;95460.19;;;8.45;91.20
50774;BME280;36745;48.544;8.918;2023-03-14T05:33:36;95448.06;;;8.37;90.87
50774;BME280;36745;48.544;8.918;2023-03-14T05:36:56;95448.00;;;8.46;91.33
50774;BME280;36745;48.544;8.918;2023-03-14T05:40:16;95448.00;;;8.46;91.16
50774;BME280;36745;48.544;8.918;2023-03-14T05:43:36;95438.69;;;8.43;90.22
50774;BME280;36745;48.544;8.918;2023-03-14T05:46:56;95430.09;;;8.36;90.81
50774;BME280;36745;48.544;8.918;2023-03-14T05:50:15;95423.84;;;8.35;90.92
50774;BME280;36745;48.544;8.918;2023-03-14T05:53:35;95428.28;;;8.33;90.78
50774;BME280;36745;48.544;8.918;2023-03-14T05:56:55;95422.50;;;8.31;91.01
50774;BME280;36745;48.544;8.918;2023-03-14T06:00:15;95417.03;;;8.31;91.02
50774;BME280;36745;48.544;8.918;2023-03-14T06:03:35;95409.06;;;8.33;91.22
50774;BME280;36745;48.544;8.918;2023-03-14T06:06:55;95417.59;;;8.35;91.03
50774;BME280;36745;48.544;8.918;2023-03-14T06:10:15;95405.75;;;8.43;90.63
50774;BME280;36745;48.544;8.918;2023-03-14T06:13:35;95403.97;;;8.40;90.47
50774;BME280;36745;48.544;8.918;2023-03-14T06:16:55;95414.19;;;8.40;89.81
50774;BME280;36745;48.544;8.918;2023-03-14T06:20:15;95406.16;;;8.51;89.75
50774;BME280;36745;48.544;8.918;2023-03-14T06:23:34;95425.06;;;8.49;89.55
50774;BME280;36745;48.544;8.918;2023-03-14T06:26:54;95403.19;;;8.55;89.25
50774;BME280;36745;48.544;8.918;2023-03-14T06:30:14;95409.44;;;8.55;89.20
50774;BME280;36745;48.544;8.918;2023-03-14T06:33:34;95395.81;;;8.61;88.82
50774;BME280;36745;48.544;8.918;2023-03-14T06:36:54;95401.69;;;8.68;88.86
50774;BME280;36745;48.544;8.918;2023-03-14T06:40:14;95387.28;;;8.73;88.65
50774;BME280;36745;48.544;8.918;2023-03-14T06:43:37;95396.22;;;8.68;88.78
50774;BME280;36745;48.544;8.918;2023-03-14T06:46:57;95396.75;;;8.72;88.58
50774;BME280;36745;48.544;8.918;2023-03-14T06:50:16;95394.66;;;8.82;88.12
50774;BME280;36745;48.544;8.918;2023-03-14T06:53:36;95405.06;;;8.93;86.48
50774;BME280;36745;48.544;8.918;2023-03-14T06:56:56;95414.09;;;8.93;85.95
50774;BME280;36745;48.544;8.918;2023-03-14T07:00:16;95417.59;;;8.94;86.43
50774;BME280;36745;48.544;8.918;2023-03-14T07:03:36;95408.28;;;9.06;84.53
50774;BME280;36745;48.544;8.918;2023-03-14T07:06:56;95418.13;;;9.12;84.73
50774;BME280;36745;48.544;8.918;2023-03-14T07:10:16;95420.41;;;9.14;84.19
50774;BME280;36745;48.544;8.918;2023-03-14T07:13:36;95418.50;;;9.20;83.33
50774;BME280;36745;48.544;8.918;2023-03-14T07:16:56;95424.06;;;9.25;83.05
50774;BME280;36745;48.544;8.918;2023-03-14T07:20:16;95431.25;;;9.38;83.68
50774;BME280;36745;48.544;8.918;2023-03-14T07:23:36;95429.00;;;9.56;83.67
50774;BME280;36745;48.544;8.918;2023-03-14T07:26:56;95435.78;;;9.76;82.95
50774;BME280;36745;48.544;8.918;2023-03-14T07:30:16;95430.06;;;9.79;81.32
50774;BME280;36745;48.544;8.918;2023-03-14T07:33:35;95436.88;;;9.84;81.10
50774;BME280;36745;48.544;8.918;2023-03-14T07:36:55;95441.22;;;9.90;81.50
50774;BME280;36745;48.544;8.918;2023-03-14T07:40:15;95439.09;;;10.00;80.99
50774;BME280;36745;48.544;8.918;2023-03-14T07:43:35;95445.50;;;10.11;80.64
50774;BME280;36745;48.544;8.918;2023-03-14T07:46:55;95444.84;;;10.17;79.66
50774;BME280;36745;48.544;8.918;2023-03-14T07:50:15;95455.50;;;10.29;80.29
50774;BME280;36745;48.544;8.918;2023-03-14T07:53:34;95461.81;;;10.56;80.02
50774;BME280;36745;48.544;8.918;2023-03-14T07:56:54;95461.03;;;10.81;78.77
50774;BME280;36745;48.544;8.918;2023-03-14T08:00:14;95474.41;;;10.88;78.42
50774;BME280;36745;48.544;8.918;2023-03-14T08:03:34;95471.41;;;10.91;77.79
50774;BME280;36745;48.544;8.918;2023-03-14T08:06:54;95483.19;;;10.92;76.29
50774;BME280;36745;48.544;8.918;2023-03-14T08:10:14;95481.25;;;10.98;76.15
50774;BME280;36745;48.544;8.918;2023-03-14T08:13:40;95474.84;;;11.12;72.97
50774;BME280;36745;48.544;8.918;2023-03-14T08:17:00;95475.47;;;11.22;75.24
50774;BME280;36745;48.544;8.918;2023-03-14T08:20:22;95478.56;;;11.35;73.08
50774;BME280;36745;48.544;8.918;2023-03-14T08:23:41;95482.69;;;11.51;73.60
50774;BME280;36745;48.544;8.918;2023-03-14T08:27:01;95472.88;;;11.44;71.47
50774;BME280;36745;48.544;8.918;2023-03-14T08:30:22;95479.22;;;11.24;69.79
50774;BME280;36745;48.544;8.918;2023-03-14T08:33:41;95494.44;;;11.14;70.62
50774;BME280;36745;48.544;8.918;2023-03-14T08:37:01;95502.03;;;10.93;70.92
50774;BME280;36745;48.544;8.918;2023-03-14T08:40:21;95489.59;;;10.78;71.74
50774;BME280;36745;48.544;8.918;2023-03-14T08:43:41;95503.31;;;10.72;72.10
50774;BME280;36745;48.544;8.918;2023-03-14T08:47:00;95505.59;;;10.74;72.52
50774;BME280;36745;48.544;8.918;2023-03-14T08:50:20;95499.50;;;10.70;72.53
50774;BME280;36745;48.544;8.918;2023-03-14T08:53:40;95500.81;;;10.74;73.81
50774;BME280;36745;48.544;8.918;2023-03-14T08:57:00;95508.47;;;10.65;74.54
50774;BME280;36745;48.544;8.918;2023-03-14T09:00:20;95500.25;;;10.44;75.04
50774;BME280;36745;48.544;8.918;2023-03-14T09:03:40;95514.16;;;10.35;75.62
50774;BME280;36745;48.544;8.918;2023-03-14T09:07:00;95507.97;;;10.40;75.89
50774;BME280;36745;48.544;8.918;2023-03-14T09:10:20;95506.16;;;10.37;75.83
50774;BME280;36745;48.544;8.918;2023-03-14T09:13:40;95500.78;;;10.48;75.27
50774;BME280;36745;48.544;8.918;2023-03-14T09:16:59;95506.88;;;10.52;73.71
50774;BME280;36745;48.544;8.918;2023-03-14T09:20:19;95509.88;;;10.55;74.27
50774;BME280;36745;48.544;8.918;2023-03-14T09:23:39;95522.69;;;10.58;73.49
50774;BME280;36745;48.544;8.918;2023-03-14T09:26:59;95516.44;;;10.57;73.00
50774;BME280;36745;48.544;8.918;2023-03-14T09:30:19;95528.75;;;10.62;74.09
50774;BME280;36745;48.544;8.918;2023-03-14T09:33:39;95525.78;;;10.65;73.68
50774;BME280;36745;48.544;8.918;2023-03-14T09:36:59;95522.66;;;10.78;74.09
50774;BME280;36745;48.544;8.918;2023-03-14T09:40:20;95533.47;;;10.81;73.45
50774;BME280;36745;48.544;8.918;2023-03-14T09:43:41;95528.06;;;10.67;73.26
50774;BME280;36745;48.544;8.918;2023-03-14T09:47:05;95531.16;;;10.54;73.01
50774;BME280;36745;48.544;8.918;2023-03-14T09:50:30;95535.50;;;10.61;73.71
50774;BME280;36745;48.544;8.918;2023-03-14T09:53:51;95529.00;;;10.64;73.67
50774;BME280;36745;48.544;8.918;2023-03-14T09:57:15;95534.00;;;10.85;73.49
50774;BME280;36745;48.544;8.918;2023-03-14T10:00:36;95538.34;;;10.92;72.46
50774;BME280;36745;48.544;8.918;2023-03-14T10:03:57;95525.59;;;10.94;72.77
50774;BME280;36745;48.544;8.918;2023-03-14T10:07:29;95517.59;;;10.97;72.13
50774;BME280;36745;48.544;8.918;2023-03-14T10:10:48;95527.84;;;10.96;72.34
50774;BME280;36745;48.544;8.918;2023-03-14T10:14:10;95532.19;;;11.03;71.80
50774;BME280;36745;48.544;8.918;2023-03-14T10:17:40;95517.91;;;11.04;71.64
50774;BME280;36745;48.544;8.918;2023-03-14T10:21:26;95527.44;;;11.03;71.60
50774;BME280;36745;48.544;8.918;2023-03-14T10:24:55;95533.69;;;11.04;71.89
50774;BME280;36745;48.544;8.918;2023-03-14T10:28:31;95530.19;;;11.03;71.20
50774;BME280;36745;48.544;8.918;2023-03-14T10:31:58;95534.50;;;11.10;72.58
50774;BME280;36745;48.544;8.918;2023-03-14T10:35:21;95534.16;;;11.22;72.97
50774;BME280;36745;48.544;8.918;2023-03-14T10:38:41;95537.91;;;11.25;72.48
50774;BME280;36745;48.544;8.918;2023-03-14T10:42:14;95550.81;;;11.39;72.65
50774;BME280;36745;48.544;8.918;2023-03-14T10:45:38;95552.75;;;11.27;71.97
50774;BME280;36745;48.544;8.918;2023-03-14T10:48:58;95546.34;;;11.16;72.11
50774;BME280;36745;48.544;8.918;2023-03-14T10:52:26;95550.13;;;11.18;72.33
50774;BME280;36745;48.544;8.918;2023-03-14T10:55:46;95567.25;;;11.22;73.15
50774;BME280;36745;48.544;8.918;2023-03-14T10:59:14;95572.47;;;11.20;73.95
50774;BME280;36745;48.544;8.918;2023-03-14T11:02:54;95592.84;;;11.03;75.04
50774;BME280;36745;48.544;8.918;2023-03-14T11:06:23;95588.50;;;10.96;76.38
50774;BME280;36745;48.544;8.918;2023-03-14T11:16:54;95604.34;;;11.21;77.94
50774;BME280;36745;48.544;8.918;2023-03-14T11:24:10;95610.47;;;10.85;78.77
50774;BME280;36745;48.544;8.918;2023-03-14T11:27:45;95615.97;;;10.85;79.18
50774;BME280;36745;48.544;8.918;2023-03-14T11:34:57;95619.38;;;10.80;80.00
50774;BME280;36745;48.544;8.918;2023-03-14T11:41:59;95623.59;;;10.75;80.30
50774;BME280;36745;48.544;8.918;2023-03-14T11:45:41;95627.25;;;10.67;80.31
50774;BME280;36745;48.544;8.918;2023-03-14T11:49:06;95630.56;;;10.50;80.21
50774;BME280;36745;48.544;8.918;2023-03-14T11:52:38;95643.31;;;10.33;82.04
50774;BME280;36745;48.544;8.918;2023-03-14T11:55:58;95649.38;;;10.37;82.44
50774;BME280;36745;48.544;8.918;2023-03-14T11:59:27;95650.53;;;10.45;83.09
50774;BME280;36745;48.544;8.918;2023-03-14T12:06:50;95702.06;;;10.25;84.87
50774;BME280;36745;48.544;8.918;2023-03-14T12:10:10;95721.41;;;10.01;87.41
50774;BME280;36745;48.544;8.918;2023-03-14T12:13:37;95720.81;;;9.67;84.79
50774;BME280;36745;48.544;8.918;2023-03-14T12:17:04;95734.31;;;9.27;81.59
50774;BME280;36745;48.544;8.918;2023-03-14T12:20:25;95732.38;;;9.18;81.82
50774;BME280;36745;48.544;8.918;2023-03-14T12:23:55;95732.84;;;9.17;80.17
50774;BME280;36745;48.544;8.918;2023-03-14T12:34:48;95758.81;;;10.51;75.42
50774;BME280;36745;48.544;8.918;2023-03-14T12:42:20;95796.59;;;10.07;71.67
50774;BME280;36745;48.544;8.918;2023-03-14T12:46:07;95806.84;;;10.06;71.33
50774;BME280;36745;48.544;8.918;2023-03-14T12:49:35;95811.22;;;10.13;69.18
50774;BME280;36745;48.544;8.918;2023-03-14T13:00:21;95883.31;;;10.26;65.90
50774;BME280;36745;48.544;8.918;2023-03-14T13:03:51;95870.28;;;10.12;64.83
50774;BME280;36745;48.544;8.918;2023-03-14T13:07:30;95884.25;;;9.85;63.34
50774;BME280;36745;48.544;8.918;2023-03-14T13:10:50;95902.78;;;9.60;62.45
50774;BME280;36745;48.544;8.918;2023-03-14T13:14:10;95922.50;;;9.26;61.85
50774;BME280;36745;48.544;8.918;2023-03-14T13:17:33;95940.09;;;9.19;63.07
50774;BME280;36745;48.544;8.918;2023-03-14T13:20:55;95946.94;;;9.24;63.22
50774;BME280;36745;48.544;8.918;2023-03-14T13:24:27;95960.47;;;9.04;62.05
50774;BME280;36745;48.544;8.918;2023-03-14T13:27:47;95972.53;;;8.97;62.08
50774;BME280;36745;48.544;8.918;2023-03-14T13:31:22;95976.84;;;8.89;63.12
50774;BME280;36745;48.544;8.918;2023-03-14T13:34:42;95992.13;;;8.90;63.25
50774;BME280;36745;48.544;8.918;2023-03-14T13:38:02;96006.34;;;8.79;62.85
50774;BME280;36745;48.544;8.918;2023-03-14T13:41:23;96017.34;;;8.79;62.39
50774;BME280;36745;48.544;8.918;2023-03-14T13:44:43;96053.19;;;8.49;62.28
50774;BME280;36745;48.544;8.918;2023-03-14T13:48:03;96039.00;;;8.41;61.94
50774;BME280;36745;48.544;8.918;2023-03-14T13:51:23;96052.09;;;8.37;61.74
50774;BME280;36745;48.544;8.918;2023-03-14T13:54:44;96060.19;;;8.31;61.78
50774;BME280;36745;48.544;8.918;2023-03-14T13:58:04;96083.22;;;8.43;62.41
50774;BME280;36745;48.544;8.918;2023-03-14T14:01:27;96078.66;;;8.31;60.19
50774;BME280;36745;48.544;8.918;2023-03-14T14:04:50;96087.63;;;8.31;60.45
50774;BME280;36745;48.544;8.918;2023-03-14T14:08:12;96103.63;;;8.24;58.10
50774;BME280;36745;48.544;8.918;2023-03-14T14:11:53;96110.78;;;8.21;59.01
50774;BME280;36745;48.544;8.918;2023-03-14T14:15:17;96123.00;;;8.29;59.81
50774;BME280;36745;48.544;8.918;2023-03-14T14:18:39;96137.81;;;8.32;59.63
50774;BME280;36745;48.544;8.918;2023-03-14T14:21:59;96148.38;;;8.42;60.00
50774;BME280;36745;48.544;8.918;2023-03-14T14:25:19;96150.09;;;8.58;60.28
50774;BME280;36745;48.544;8.918;2023-03-14T14:28:38;96153.56;;;8.40;58.90
50774;BME280;36745;48.544;8.918;2023-03-14T14:35:33;96173.47;;;8.23;57.79
50774;BME280;36745;48.544;8.918;2023-03-14T14:38:58;96189.09;;;8.35;58.37
50774;BME280;36745;48.544;8.918;2023-03-14T14:42:20;96198.22;;;8.32;57.56
50774;BME280;36745;48.544;8.918;2023-03-14T14:45:42;96187.88;;;8.36;56.93
50774;BME280;36745;48.544;8.918;2023-03-14T14:49:06;96190.56;;;8.27;56.63
50774;BME280;36745;48.544;8.918;2023-03-14T14:52:46;96194.75;;;8.40;57.48
50774;BME280;36745;48.544;8.918;2023-03-14T14:56:17;96201.03;;;8.50;57.80
50774;BME280;36745;48.544;8.918;2023-03-14T14:59:42;96198.63;;;8.61;57.79
50774;BME280;36745;48.544;8.918;2023-03-14T15:03:03;96202.44;;;8.64;56.93
50774;BME280;36745;48.544;8.918;2023-03-14T15:06:24;96209.91;;;8.54;56.65
50774;BME280;36745;48.544;8.918;2023-03-14T15:09:47;96214.44;;;8.39;56.30
50774;BME280;36745;48.544;8.918;2023-03-14T15:13:06;96208.78;;;8.42;56.80
50774;BME280;36745;48.544;8.918;2023-03-14T15:16:31;96208.38;;;8.53;56.87
50774;BME280;36745;48.544;8.918;2023-03-14T15:19:51;96211.13;;;8.53;56.75
50774;BME280;36745;48.544;8.918;2023-03-14T15:23:13;96212.94;;;8.47;56.26
50774;BME280;36745;48.544;8.918;2023-03-14T15:26:32;96206.78;;;8.34;56.56
50774;BME280;36745;48.544;8.918;2023-03-14T15:29:52;96205.59;;;8.44;57.15
50774;BME280;36745;48.544;8.918;2023-03-14T15:33:12;96219.94;;;8.39;56.58
50774;BME280;36745;48.544;8.918;2023-03-14T15:36:33;96216.34;;;8.29;56.06
50774;BME280;36745;48.544;8.918;2023-03-14T15:39:53;96220.72;;;8.18;55.53
50774;BME280;36745;48.544;8.918;2023-03-14T15:43:15;96217.03;;;8.12;56.18
50774;BME280;36745;48.544;8.918;2023-03-14T15:46:35;96212.94;;;8.16;55.71
50774;BME280;36745;48.544;8.918;2023-03-14T15:49:55;96217.72;;;8.25;56.31
50774;BME280;36745;48.544;8.918;2023-03-14T15:53:15;96228.00;;;8.42;56.61
50774;BME280;36745;48.544;8.918;2023-03-14T15:56:37;96226.00;;;8.34;56.52
50774;BME280;36745;48.544;8.918;2023-03-14T15:59:57;96224.19;;;8.31;55.71
50774;BME280;36745;48.544;8.918;2023-03-14T16:03:17;96224.31;;;8.06;55.52
50774;BME280;36745;48.544;8.918;2023-03-14T16:06:37;96243.88;;;8.08;56.22
50774;BME280;36745;48.544;8.918;2023-03-14T16:09:57;96242.00;;;8.05;56.49
50774;BME280;36745;48.544;8.918;2023-03-14T16:13:16;96243.09;;;8.07;56.72
50774;BME280;36745;48.544;8.918;2023-03-14T16:16:36;96253.69;;;7.96;56.66
50774;BME280;36745;48.544;8.918;2023-03-14T16:19:56;96250.16;;;7.86;56.68
50774;BME280;36745;48.544;8.918;2023-03-14T16:23:16;96258.38;;;7.86;57.04
50774;BME280;36745;48.544;8.918;2023-03-14T16:26:36;96256.84;;;7.85;57.58
50774;BME280;36745;48.544;8.918;2023-03-14T16:29:57;96274.25;;;7.91;57.35
50774;BME280;36745;48.544;8.918;2023-03-14T16:33:18;96275.03;;;7.70;57.62
50774;BME280;36745;48.544;8.918;2023-03-14T16:36:38;96283.22;;;7.61;58.54
50774;BME280;36745;48.544;8.918;2023-03-14T16:39:58;96292.06;;;7.65;59.96
50774;BME280;36745;48.544;8.918;2023-03-14T16:43:17;96292.38;;;7.67;60.24
50774;BME280;36745;48.544;8.918;2023-03-14T16:46:37;96309.59;;;7.68;60.93
50774;BME280;36745;48.544;8.918;2023-03-14T16:49:57;96315.78;;;7.59;61.25
50774;BME280;36745;48.544;8.918;2023-03-14T16:53:17;96320.13;;;7.35;61.69
50774;BME280;36745;48.544;8.918;2023-03-14T16:56:36;96323.97;;;7.37;62.52
50774;BME280;36745;48.544;8.918;2023-03-14T16:59:56;96319.13;;;7.41;63.95
50774;BME280;36745;48.544;8.918;2023-03-14T17:03:16;96330.09;;;7.41;64.11
50774;BME280;36745;48.544;8.918;2023-03-14T17:06:37;96335.91;;;7.43;63.98
50774;BME280;36745;48.544;8.918;2023-03-14T17:09:57;96353.50;;;7.33;64.25
50774;BME280;36745;48.544;8.918;2023-03-14T17:13:17;96376.06;;;7.25;66.72
50774;BME280;36745;48.544;8.918;2023-03-14T17:16:44;96384.97;;;7.03;68.18
50774;BME280;36745;48.544;8.918;2023-03-14T17:20:05;96394.97;;;6.85;69.70
50774;BME280;36745;48.544;8.918;2023-03-14T17:23:28;96396.38;;;6.77;70.13
50774;BME280;36745;48.544;8.918;2023-03-14T17:26:48;96414.69;;;6.80;70.38
50774;BME280;36745;48.544;8.918;2023-03-14T17:30:09;96430.47;;;6.88;70.41
50774;BME280;36745;48.544;8.918;2023-03-14T17:33:28;96417.66;;;6.85;70.83
50774;BME280;36745;48.544;8.918;2023-03-14T17:36:48;96420.81;;;6.71;72.41
50774;BME280;36745;48.544;8.918;2023-03-14T17:40:09;96418.59;;;6.66;72.24
50774;BME280;36745;48.544;8.918;2023-03-14T17:43:28;96423.88;;;6.73;72.71
50774;BME280;36745;48.544;8.918;2023-03-14T17:46:48;96433.50;;;6.65;72.11
50774;BME280;36745;48.544;8.918;2023-03-14T17:50:08;96436.34;;;6.61;72.00
50774;BME280;36745;48.544;8.918;2023-03-14T17:53:29;96437.47;;;6.64;72.03
50774;BME280;36745;48.544;8.918;2023-03-14T17:56:49;96444.00;;;6.54;73.24
50774;BME280;36745;48.544;8.918;2023-03-14T18:00:09;96453.63;;;6.46;73.85
50774;BME280;36745;48.544;8.918;2023-03-14T18:03:29;96470.03;;;6.46;73.70
50774;BME280;36745;48.544;8.918;2023-03-14T18:06:50;96505.69;;;6.58;73.05
50774;BME280;36745;48.544;8.918;2023-03-14T18:10:10;96517.50;;;6.55;74.59
50774;BME280;36745;48.544;8.918;2023-03-14T18:13:30;96529.09;;;6.59;75.10
50774;BME280;36745;48.544;8.918;2023-03-14T18:16:50;96525.19;;;6.31;75.75
50774;BME280;36745;48.544;8.918;2023-03-14T18:20:12;96514.78;;;6.10;75.32
50774;BME280;36745;48.544;8.918;2023-03-14T18:23:31;96515.53;;;6.11;74.67
50774;BME280;36745;48.544;8.918;2023-03-14T18:26:51;96519.06;;;6.11;74.18
50774;BME280;36745;48.544;8.918;2023-03-14T18:30:12;96526.75;;;6.00;74.58
50774;BME280;36745;48.544;8.918;2023-03-14T18:33:32;96526.25;;;5.89;74.39
50774;BME280;36745;48.544;8.918;2023-03-14T18:36:56;96529.59;;;5.97;75.42
50774;BME280;36745;48.544;8.918;2023-03-14T18:40:15;96524.00;;;5.84;75.27
50774;BME280;36745;48.544;8.918;2023-03-14T18:43:36;96521.63;;;5.86;75.59